sensor_id;sensor_type;location;lat;lon;timestamp;P1;durP1;ratioP1;P2;durP2;ratioP2
20888;SDS011;10604;51.976;7.594;2023-01-29T00:00:47;38.77;;;28.47;;
20888;SDS011;10604;51.976;7.594;2023-01-29T00:03:12;36.05;;;29.13;;
20888;SDS011;10604;51.976;7.594;2023-01-29T00:05:38;38.53;;;29.60;;
20888;SDS011;10604;51.976;7.594;2023-01-29T00:08:03;38.10;;;29.63;;
20888;SDS011;10604;51.976;7.594;2023-01-29T00:10:28;37.10;;;29.20;;
20888;SDS011;10604;51.976;7.594;2023-01-29T00:12:54;38.42;;;29.27;;
20888;SDS011;10604;51.976;7.594;2023-01-29T00:15:19;39.87;;;30.10;;
20888;SDS011;10604;51.976;7.594;2023-01-29T00:17:45;40.20;;;30.67;;
20888;SDS011;10604;51.976;7.594;2023-01-29T00:20:10;39.63;;;29.73;;
20888;SDS011;10604;51.976;7.594;2023-01-29T00:22:36;41.58;;;31.20;;
20888;SDS011;10604;51.976;7.594;2023-01-29T00:25:01;41.47;;;30.47;;
20888;SDS011;10604;51.976;7.594;2023-01-29T00:27:27;40.73;;;30.13;;
20888;SDS011;10604;51.976;7.594;2023-01-29T00:29:52;40.88;;;30.13;;
20888;SDS011;10604;51.976;7.594;2023-01-29T00:32:36;43.35;;;33.05;;
20888;SDS011;10604;51.976;7.594;2023-01-29T00:35:02;41.65;;;31.63;;
20888;SDS011;10604;51.976;7.594;2023-01-29T00:37:27;40.83;;;30.77;;
20888;SDS011;10604;51.976;7.594;2023-01-29T00:39:53;42.75;;;31.90;;
20888;SDS011;10604;51.976;7.594;2023-01-29T00:42:18;45.83;;;32.93;;
20888;SDS011;10604;51.976;7.594;2023-01-29T00:45:07;42.20;;;31.33;;
20888;SDS011;10604;51.976;7.594;2023-01-29T00:47:32;42.17;;;31.63;;
20888;SDS011;10604;51.976;7.594;2023-01-29T00:49:58;44.03;;;31.77;;
20888;SDS011;10604;51.976;7.594;2023-01-29T00:52:24;43.25;;;31.55;;
20888;SDS011;10604;51.976;7.594;2023-01-29T00:54:59;44.00;;;32.57;;
20888;SDS011;10604;51.976;7.594;2023-01-29T00:57:25;42.25;;;31.60;;
20888;SDS011;10604;51.976;7.594;2023-01-29T00:59:52;42.55;;;32.30;;
20888;SDS011;10604;51.976;7.594;2023-01-29T01:02:17;43.37;;;32.10;;
20888;SDS011;10604;51.976;7.594;2023-01-29T01:05:02;43.50;;;33.00;;
20888;SDS011;10604;51.976;7.594;2023-01-29T01:07:30;46.50;;;33.35;;
20888;SDS011;10604;51.976;7.594;2023-01-29T01:09:55;43.65;;;32.70;;
20888;SDS011;10604;51.976;7.594;2023-01-29T01:12:39;42.17;;;32.87;;
20888;SDS011;10604;51.976;7.594;2023-01-29T01:15:05;43.35;;;32.88;;
20888;SDS011;10604;51.976;7.594;2023-01-29T01:17:30;44.30;;;33.10;;
20888;SDS011;10604;51.976;7.594;2023-01-29T01:19:56;44.00;;;32.67;;
20888;SDS011;10604;51.976;7.594;2023-01-29T01:22:21;46.17;;;32.70;;
20888;SDS011;10604;51.976;7.594;2023-01-29T01:24:47;40.87;;;31.67;;
20888;SDS011;10604;51.976;7.594;2023-01-29T01:27:12;42.23;;;31.47;;
20888;SDS011;10604;51.976;7.594;2023-01-29T01:29:38;42.22;;;31.38;;
20888;SDS011;10604;51.976;7.594;2023-01-29T01:32:03;45.43;;;33.17;;
20888;SDS011;10604;51.976;7.594;2023-01-29T01:34:29;44.33;;;32.05;;
20888;SDS011;10604;51.976;7.594;2023-01-29T01:36:55;43.70;;;32.67;;
20888;SDS011;10604;51.976;7.594;2023-01-29T01:39:21;44.85;;;32.75;;
20888;SDS011;10604;51.976;7.594;2023-01-29T01:41:47;45.90;;;33.00;;
20888;SDS011;10604;51.976;7.594;2023-01-29T01:47:16;42.95;;;32.83;;
20888;SDS011;10604;51.976;7.594;2023-01-29T01:49:44;45.13;;;32.67;;
20888;SDS011;10604;51.976;7.594;2023-01-29T01:52:11;43.05;;;31.65;;
20888;SDS011;10604;51.976;7.594;2023-01-29T01:54:39;45.42;;;32.40;;
20888;SDS011;10604;51.976;7.594;2023-01-29T01:57:06;44.23;;;31.77;;
20888;SDS011;10604;51.976;7.594;2023-01-29T01:59:40;45.67;;;33.65;;
20888;SDS011;10604;51.976;7.594;2023-01-29T02:02:10;47.95;;;32.75;;
20888;SDS011;10604;51.976;7.594;2023-01-29T02:04:54;45.38;;;32.95;;
20888;SDS011;10604;51.976;7.594;2023-01-29T02:07:41;43.25;;;33.40;;
20888;SDS011;10604;51.976;7.594;2023-01-29T02:10:31;46.35;;;33.72;;
20888;SDS011;10604;51.976;7.594;2023-01-29T02:13:04;44.97;;;33.15;;
20888;SDS011;10604;51.976;7.594;2023-01-29T02:15:31;45.97;;;33.03;;
20888;SDS011;10604;51.976;7.594;2023-01-29T02:17:57;45.53;;;34.03;;
20888;SDS011;10604;51.976;7.594;2023-01-29T02:20:23;45.70;;;34.42;;
20888;SDS011;10604;51.976;7.594;2023-01-29T02:23:00;45.93;;;35.60;;
20888;SDS011;10604;51.976;7.594;2023-01-29T02:25:45;48.05;;;34.35;;
20888;SDS011;10604;51.976;7.594;2023-01-29T02:37:00;48.55;;;34.88;;
20888;SDS011;10604;51.976;7.594;2023-01-29T02:42:01;48.72;;;34.45;;
20888;SDS011;10604;51.976;7.594;2023-01-29T02:44:43;47.20;;;34.83;;
20888;SDS011;10604;51.976;7.594;2023-01-29T02:50:03;46.80;;;34.58;;
20888;SDS011;10604;51.976;7.594;2023-01-29T02:52:49;47.35;;;34.40;;
20888;SDS011;10604;51.976;7.594;2023-01-29T02:55:23;46.22;;;35.00;;
20888;SDS011;10604;51.976;7.594;2023-01-29T02:57:55;47.47;;;34.05;;
20888;SDS011;10604;51.976;7.594;2023-01-29T03:00:26;45.67;;;33.63;;
20888;SDS011;10604;51.976;7.594;2023-01-29T03:03:08;45.88;;;34.67;;
20888;SDS011;10604;51.976;7.594;2023-01-29T03:08:30;45.25;;;34.60;;
20888;SDS011;10604;51.976;7.594;2023-01-29T03:11:07;49.33;;;34.80;;
20888;SDS011;10604;51.976;7.594;2023-01-29T03:13:56;46.40;;;35.22;;
20888;SDS011;10604;51.976;7.594;2023-01-29T03:22:03;45.83;;;34.78;;
20888;SDS011;10604;51.976;7.594;2023-01-29T03:28:07;48.40;;;35.27;;
20888;SDS011;10604;51.976;7.594;2023-01-29T03:30:36;48.70;;;35.28;;
20888;SDS011;10604;51.976;7.594;2023-01-29T03:33:26;48.95;;;34.92;;
20888;SDS011;10604;51.976;7.594;2023-01-29T03:36:00;46.22;;;34.65;;
20888;SDS011;10604;51.976;7.594;2023-01-29T03:38:32;49.25;;;35.42;;
20888;SDS011;10604;51.976;7.594;2023-01-29T03:40:59;47.43;;;35.00;;
20888;SDS011;10604;51.976;7.594;2023-01-29T03:46:05;47.10;;;34.63;;
20888;SDS011;10604;51.976;7.594;2023-01-29T03:51:34;49.67;;;35.00;;
20888;SDS011;10604;51.976;7.594;2023-01-29T03:59:22;45.78;;;33.38;;
20888;SDS011;10604;51.976;7.594;2023-01-29T04:04:20;45.88;;;33.40;;
20888;SDS011;10604;51.976;7.594;2023-01-29T04:07:05;46.88;;;33.58;;
20888;SDS011;10604;51.976;7.594;2023-01-29T04:12:17;45.53;;;33.55;;
20888;SDS011;10604;51.976;7.594;2023-01-29T04:14:48;45.42;;;33.00;;
20888;SDS011;10604;51.976;7.594;2023-01-29T04:17:18;47.10;;;33.22;;
20888;SDS011;10604;51.976;7.594;2023-01-29T04:19:48;46.85;;;34.67;;
20888;SDS011;10604;51.976;7.594;2023-01-29T04:22:16;46.93;;;33.67;;
20888;SDS011;10604;51.976;7.594;2023-01-29T04:24:46;49.05;;;35.05;;
20888;SDS011;10604;51.976;7.594;2023-01-29T04:27:26;45.88;;;33.72;;
20888;SDS011;10604;51.976;7.594;2023-01-29T04:30:06;47.72;;;33.58;;
20888;SDS011;10604;51.976;7.594;2023-01-29T04:38:00;46.03;;;32.95;;
20888;SDS011;10604;51.976;7.594;2023-01-29T04:40:34;45.50;;;32.90;;
20888;SDS011;10604;51.976;7.594;2023-01-29T04:43:21;46.65;;;34.58;;
20888;SDS011;10604;51.976;7.594;2023-01-29T04:54:27;45.10;;;34.00;;
20888;SDS011;10604;51.976;7.594;2023-01-29T04:59:41;47.53;;;34.05;;
20888;SDS011;10604;51.976;7.594;2023-01-29T05:02:10;47.22;;;33.72;;
20888;SDS011;10604;51.976;7.594;2023-01-29T05:04:38;48.50;;;33.90;;
20888;SDS011;10604;51.976;7.594;2023-01-29T05:07:09;47.50;;;34.47;;
20888;SDS011;10604;51.976;7.594;2023-01-29T05:09:37;47.15;;;34.75;;
20888;SDS011;10604;51.976;7.594;2023-01-29T05:12:04;49.90;;;35.23;;
20888;SDS011;10604;51.976;7.594;2023-01-29T05:14:33;45.95;;;32.63;;
20888;SDS011;10604;51.976;7.594;2023-01-29T05:17:00;47.90;;;33.55;;
20888;SDS011;10604;51.976;7.594;2023-01-29T05:19:29;47.10;;;33.88;;
20888;SDS011;10604;51.976;7.594;2023-01-29T05:21:55;49.80;;;35.45;;
20888;SDS011;10604;51.976;7.594;2023-01-29T05:24:23;46.55;;;33.55;;
20888;SDS011;10604;51.976;7.594;2023-01-29T05:26:51;49.45;;;35.05;;
20888;SDS011;10604;51.976;7.594;2023-01-29T05:29:36;45.37;;;33.47;;
20888;SDS011;10604;51.976;7.594;2023-01-29T05:32:09;47.50;;;33.43;;
20888;SDS011;10604;51.976;7.594;2023-01-29T05:34:35;44.03;;;32.72;;
20888;SDS011;10604;51.976;7.594;2023-01-29T05:37:00;45.63;;;33.33;;
20888;SDS011;10604;51.976;7.594;2023-01-29T05:39:26;45.58;;;33.03;;
20888;SDS011;10604;51.976;7.594;2023-01-29T05:41:52;45.60;;;34.00;;
20888;SDS011;10604;51.976;7.594;2023-01-29T05:44:17;46.63;;;33.40;;
20888;SDS011;10604;51.976;7.594;2023-01-29T05:46:42;47.97;;;33.90;;
20888;SDS011;10604;51.976;7.594;2023-01-29T05:49:08;44.23;;;33.73;;
20888;SDS011;10604;51.976;7.594;2023-01-29T05:51:34;45.60;;;33.20;;
20888;SDS011;10604;51.976;7.594;2023-01-29T05:53:59;44.07;;;33.17;;
20888;SDS011;10604;51.976;7.594;2023-01-29T05:56:25;45.90;;;33.63;;
20888;SDS011;10604;51.976;7.594;2023-01-29T05:58:50;47.97;;;34.13;;
20888;SDS011;10604;51.976;7.594;2023-01-29T06:01:17;46.72;;;34.13;;
20888;SDS011;10604;51.976;7.594;2023-01-29T06:03:44;49.40;;;34.25;;
20888;SDS011;10604;51.976;7.594;2023-01-29T06:06:10;43.25;;;32.08;;
20888;SDS011;10604;51.976;7.594;2023-01-29T06:08:36;47.85;;;33.38;;
20888;SDS011;10604;51.976;7.594;2023-01-29T06:11:02;46.10;;;32.90;;
20888;SDS011;10604;51.976;7.594;2023-01-29T06:13:28;48.20;;;33.72;;
20888;SDS011;10604;51.976;7.594;2023-01-29T06:15:54;44.83;;;32.67;;
20888;SDS011;10604;51.976;7.594;2023-01-29T06:18:19;49.47;;;34.30;;
20888;SDS011;10604;51.976;7.594;2023-01-29T06:20:45;45.08;;;33.17;;
20888;SDS011;10604;51.976;7.594;2023-01-29T06:23:10;46.07;;;32.03;;
20888;SDS011;10604;51.976;7.594;2023-01-29T06:25:35;47.03;;;32.70;;
20888;SDS011;10604;51.976;7.594;2023-01-29T06:28:01;45.07;;;31.97;;
20888;SDS011;10604;51.976;7.594;2023-01-29T06:30:26;42.90;;;31.30;;
20888;SDS011;10604;51.976;7.594;2023-01-29T06:32:55;43.63;;;31.30;;
20888;SDS011;10604;51.976;7.594;2023-01-29T06:35:22;42.33;;;31.05;;
20888;SDS011;10604;51.976;7.594;2023-01-29T06:37:48;45.55;;;31.92;;
20888;SDS011;10604;51.976;7.594;2023-01-29T06:40:14;41.33;;;30.57;;
20888;SDS011;10604;51.976;7.594;2023-01-29T06:42:39;41.63;;;30.30;;
20888;SDS011;10604;51.976;7.594;2023-01-29T06:45:05;43.47;;;30.37;;
20888;SDS011;10604;51.976;7.594;2023-01-29T06:47:31;40.13;;;29.00;;
20888;SDS011;10604;51.976;7.594;2023-01-29T06:49:56;43.33;;;30.77;;
20888;SDS011;10604;51.976;7.594;2023-01-29T06:52:21;43.77;;;30.77;;
20888;SDS011;10604;51.976;7.594;2023-01-29T06:54:47;42.28;;;30.27;;
20888;SDS011;10604;51.976;7.594;2023-01-29T06:57:12;42.75;;;30.40;;
20888;SDS011;10604;51.976;7.594;2023-01-29T06:59:37;44.73;;;30.93;;
20888;SDS011;10604;51.976;7.594;2023-01-29T07:02:03;44.40;;;30.73;;
20888;SDS011;10604;51.976;7.594;2023-01-29T07:04:28;42.93;;;28.97;;
20888;SDS011;10604;51.976;7.594;2023-01-29T07:06:54;44.78;;;30.55;;
20888;SDS011;10604;51.976;7.594;2023-01-29T07:09:19;42.90;;;30.17;;
20888;SDS011;10604;51.976;7.594;2023-01-29T07:11:44;43.20;;;30.00;;
20888;SDS011;10604;51.976;7.594;2023-01-29T07:14:10;41.87;;;30.20;;
20888;SDS011;10604;51.976;7.594;2023-01-29T07:16:35;42.53;;;30.30;;
20888;SDS011;10604;51.976;7.594;2023-01-29T07:19:00;41.55;;;29.77;;
20888;SDS011;10604;51.976;7.594;2023-01-29T07:21:26;40.63;;;29.23;;
20888;SDS011;10604;51.976;7.594;2023-01-29T07:23:52;41.33;;;29.60;;
20888;SDS011;10604;51.976;7.594;2023-01-29T07:26:17;41.63;;;30.30;;
20888;SDS011;10604;51.976;7.594;2023-01-29T07:28:42;41.37;;;29.33;;
20888;SDS011;10604;51.976;7.594;2023-01-29T07:31:09;41.07;;;29.33;;
20888;SDS011;10604;51.976;7.594;2023-01-29T07:33:36;40.20;;;29.30;;
20888;SDS011;10604;51.976;7.594;2023-01-29T07:36:05;41.95;;;29.50;;
20888;SDS011;10604;51.976;7.594;2023-01-29T07:38:31;43.78;;;29.58;;
20888;SDS011;10604;51.976;7.594;2023-01-29T07:40:57;41.47;;;29.40;;
20888;SDS011;10604;51.976;7.594;2023-01-29T07:43:22;38.92;;;28.73;;
20888;SDS011;10604;51.976;7.594;2023-01-29T07:45:49;41.13;;;29.23;;
20888;SDS011;10604;51.976;7.594;2023-01-29T07:48:14;38.72;;;29.48;;
20888;SDS011;10604;51.976;7.594;2023-01-29T07:50:39;38.30;;;28.97;;
20888;SDS011;10604;51.976;7.594;2023-01-29T07:53:05;41.37;;;28.53;;
20888;SDS011;10604;51.976;7.594;2023-01-29T07:55:31;40.38;;;29.52;;
20888;SDS011;10604;51.976;7.594;2023-01-29T07:57:58;39.42;;;28.48;;
20888;SDS011;10604;51.976;7.594;2023-01-29T08:00:24;40.95;;;29.15;;
20888;SDS011;10604;51.976;7.594;2023-01-29T08:02:50;41.00;;;29.52;;
20888;SDS011;10604;51.976;7.594;2023-01-29T08:05:15;41.37;;;28.83;;
20888;SDS011;10604;51.976;7.594;2023-01-29T08:07:41;39.10;;;28.80;;
20888;SDS011;10604;51.976;7.594;2023-01-29T08:10:06;41.70;;;29.83;;
20888;SDS011;10604;51.976;7.594;2023-01-29T08:12:32;41.97;;;29.02;;
20888;SDS011;10604;51.976;7.594;2023-01-29T08:14:58;39.33;;;28.07;;
20888;SDS011;10604;51.976;7.594;2023-01-29T08:17:23;39.92;;;27.17;;
20888;SDS011;10604;51.976;7.594;2023-01-29T08:19:48;39.10;;;28.33;;
20888;SDS011;10604;51.976;7.594;2023-01-29T08:22:14;41.13;;;27.73;;
20888;SDS011;10604;51.976;7.594;2023-01-29T08:24:40;40.25;;;28.08;;
20888;SDS011;10604;51.976;7.594;2023-01-29T08:27:06;38.13;;;28.00;;
20888;SDS011;10604;51.976;7.594;2023-01-29T08:29:32;39.00;;;28.63;;
20888;SDS011;10604;51.976;7.594;2023-01-29T08:31:57;37.90;;;28.33;;
20888;SDS011;10604;51.976;7.594;2023-01-29T08:34:23;39.50;;;29.33;;
20888;SDS011;10604;51.976;7.594;2023-01-29T08:36:48;42.53;;;29.92;;
20888;SDS011;10604;51.976;7.594;2023-01-29T08:39:13;39.73;;;29.57;;
20888;SDS011;10604;51.976;7.594;2023-01-29T08:41:39;40.83;;;28.80;;
20888;SDS011;10604;51.976;7.594;2023-01-29T08:44:04;39.33;;;28.97;;
20888;SDS011;10604;51.976;7.594;2023-01-29T08:46:30;39.08;;;28.38;;
20888;SDS011;10604;51.976;7.594;2023-01-29T08:48:55;39.37;;;28.43;;
20888;SDS011;10604;51.976;7.594;2023-01-29T08:51:21;41.33;;;29.07;;
20888;SDS011;10604;51.976;7.594;2023-01-29T08:53:48;40.65;;;28.50;;
20888;SDS011;10604;51.976;7.594;2023-01-29T08:56:13;39.93;;;28.80;;
20888;SDS011;10604;51.976;7.594;2023-01-29T08:58:40;39.45;;;28.73;;
20888;SDS011;10604;51.976;7.594;2023-01-29T09:01:09;39.60;;;28.50;;
20888;SDS011;10604;51.976;7.594;2023-01-29T09:03:36;38.35;;;28.17;;
20888;SDS011;10604;51.976;7.594;2023-01-29T09:06:04;40.80;;;29.10;;
20888;SDS011;10604;51.976;7.594;2023-01-29T09:08:30;41.17;;;28.98;;
20888;SDS011;10604;51.976;7.594;2023-01-29T09:10:57;39.97;;;28.43;;
20888;SDS011;10604;51.976;7.594;2023-01-29T09:13:23;39.57;;;28.70;;
20888;SDS011;10604;51.976;7.594;2023-01-29T09:15:49;39.85;;;29.58;;
20888;SDS011;10604;51.976;7.594;2023-01-29T09:18:14;42.20;;;30.60;;
20888;SDS011;10604;51.976;7.594;2023-01-29T09:20:39;37.80;;;28.00;;
20888;SDS011;10604;51.976;7.594;2023-01-29T09:23:06;38.70;;;28.63;;
20888;SDS011;10604;51.976;7.594;2023-01-29T09:25:33;42.88;;;30.42;;
20888;SDS011;10604;51.976;7.594;2023-01-29T09:27:58;41.33;;;29.90;;
20888;SDS011;10604;51.976;7.594;2023-01-29T09:30:24;41.70;;;29.42;;
20888;SDS011;10604;51.976;7.594;2023-01-29T09:32:49;40.67;;;29.30;;
20888;SDS011;10604;51.976;7.594;2023-01-29T09:35:15;43.10;;;28.47;;
20888;SDS011;10604;51.976;7.594;2023-01-29T09:37:40;39.25;;;29.10;;
20888;SDS011;10604;51.976;7.594;2023-01-29T09:40:06;38.87;;;28.90;;
20888;SDS011;10604;51.976;7.594;2023-01-29T09:42:45;38.97;;;27.77;;
20888;SDS011;10604;51.976;7.594;2023-01-29T09:45:22;39.20;;;28.58;;
20888;SDS011;10604;51.976;7.594;2023-01-29T09:47:48;40.80;;;28.98;;
20888;SDS011;10604;51.976;7.594;2023-01-29T09:56:22;42.00;;;30.60;;
20888;SDS011;10604;51.976;7.594;2023-01-29T09:58:52;38.97;;;29.25;;
20888;SDS011;10604;51.976;7.594;2023-01-29T10:07:00;42.88;;;30.52;;
20888;SDS011;10604;51.976;7.594;2023-01-29T10:25:46;38.05;;;28.13;;
20888;SDS011;10604;51.976;7.594;2023-01-29T10:28:16;40.88;;;28.60;;
20888;SDS011;10604;51.976;7.594;2023-01-29T10:30:48;39.75;;;29.08;;
20888;SDS011;10604;51.976;7.594;2023-01-29T10:33:17;40.05;;;29.70;;
20888;SDS011;10604;51.976;7.594;2023-01-29T10:35:47;41.40;;;29.80;;
20888;SDS011;10604;51.976;7.594;2023-01-29T10:43:36;41.25;;;29.60;;
20888;SDS011;10604;51.976;7.594;2023-01-29T10:51:34;41.15;;;30.30;;
20888;SDS011;10604;51.976;7.594;2023-01-29T10:54:28;43.78;;;30.38;;
20888;SDS011;10604;51.976;7.594;2023-01-29T10:57:18;42.20;;;30.27;;
20888;SDS011;10604;51.976;7.594;2023-01-29T11:02:46;40.58;;;29.80;;
20888;SDS011;10604;51.976;7.594;2023-01-29T11:07:54;41.03;;;30.30;;
20888;SDS011;10604;51.976;7.594;2023-01-29T11:10:26;41.20;;;30.52;;
20888;SDS011;10604;51.976;7.594;2023-01-29T11:12:54;42.55;;;29.70;;
20888;SDS011;10604;51.976;7.594;2023-01-29T11:15:22;41.15;;;30.13;;
20888;SDS011;10604;51.976;7.594;2023-01-29T11:17:59;42.42;;;30.02;;
20888;SDS011;10604;51.976;7.594;2023-01-29T11:20:38;44.92;;;31.02;;
20888;SDS011;10604;51.976;7.594;2023-01-29T11:23:05;41.90;;;28.98;;
20888;SDS011;10604;51.976;7.594;2023-01-29T11:25:53;38.63;;;28.85;;
20888;SDS011;10604;51.976;7.594;2023-01-29T11:28:40;39.67;;;28.58;;
20888;SDS011;10604;51.976;7.594;2023-01-29T11:33:45;42.97;;;29.63;;
20888;SDS011;10604;51.976;7.594;2023-01-29T11:36:19;42.25;;;29.40;;
20888;SDS011;10604;51.976;7.594;2023-01-29T11:38:45;39.93;;;29.20;;
20888;SDS011;10604;51.976;7.594;2023-01-29T11:41:14;42.13;;;28.95;;
20888;SDS011;10604;51.976;7.594;2023-01-29T11:43:46;39.28;;;28.35;;
20888;SDS011;10604;51.976;7.594;2023-01-29T11:46:12;43.63;;;30.37;;
20888;SDS011;10604;51.976;7.594;2023-01-29T11:48:43;42.88;;;29.65;;
20888;SDS011;10604;51.976;7.594;2023-01-29T11:51:19;42.25;;;29.67;;
20888;SDS011;10604;51.976;7.594;2023-01-29T11:53:54;40.03;;;30.15;;
20888;SDS011;10604;51.976;7.594;2023-01-29T11:58:56;43.15;;;31.40;;
20888;SDS011;10604;51.976;7.594;2023-01-29T12:01:33;38.88;;;28.75;;
20888;SDS011;10604;51.976;7.594;2023-01-29T12:04:02;41.47;;;29.85;;
20888;SDS011;10604;51.976;7.594;2023-01-29T12:06:39;41.10;;;30.17;;
20888;SDS011;10604;51.976;7.594;2023-01-29T12:09:09;43.08;;;30.20;;
20888;SDS011;10604;51.976;7.594;2023-01-29T12:11:39;39.55;;;29.08;;
20888;SDS011;10604;51.976;7.594;2023-01-29T12:14:07;38.90;;;28.60;;
20888;SDS011;10604;51.976;7.594;2023-01-29T12:22:26;41.40;;;28.35;;
20888;SDS011;10604;51.976;7.594;2023-01-29T12:28:04;39.42;;;27.75;;
20888;SDS011;10604;51.976;7.594;2023-01-29T12:30:44;39.78;;;29.08;;
20888;SDS011;10604;51.976;7.594;2023-01-29T12:36:23;37.53;;;28.27;;
20888;SDS011;10604;51.976;7.594;2023-01-29T12:38:56;40.43;;;28.90;;
20888;SDS011;10604;51.976;7.594;2023-01-29T12:41:24;38.72;;;28.48;;
20888;SDS011;10604;51.976;7.594;2023-01-29T12:44:18;37.42;;;27.42;;
20888;SDS011;10604;51.976;7.594;2023-01-29T12:46:57;36.58;;;26.70;;
20888;SDS011;10604;51.976;7.594;2023-01-29T12:49:31;39.00;;;28.17;;
20888;SDS011;10604;51.976;7.594;2023-01-29T12:54:37;34.43;;;26.10;;
20888;SDS011;10604;51.976;7.594;2023-01-29T12:57:13;37.10;;;27.42;;
20888;SDS011;10604;51.976;7.594;2023-01-29T12:59:49;37.30;;;26.23;;
20888;SDS011;10604;51.976;7.594;2023-01-29T13:02:31;39.67;;;27.27;;
20888;SDS011;10604;51.976;7.594;2023-01-29T13:05:13;38.60;;;28.35;;
20888;SDS011;10604;51.976;7.594;2023-01-29T13:07:46;40.60;;;28.27;;
20888;SDS011;10604;51.976;7.594;2023-01-29T13:10:17;38.90;;;28.27;;
20888;SDS011;10604;51.976;7.594;2023-01-29T13:12:50;37.87;;;27.40;;
20888;SDS011;10604;51.976;7.594;2023-01-29T13:15:30;36.90;;;27.23;;
20888;SDS011;10604;51.976;7.594;2023-01-29T13:20:47;37.42;;;27.90;;
20888;SDS011;10604;51.976;7.594;2023-01-29T13:26:07;36.53;;;27.40;;
20888;SDS011;10604;51.976;7.594;2023-01-29T13:28:32;36.33;;;26.53;;
20888;SDS011;10604;51.976;7.594;2023-01-29T13:33:52;36.25;;;26.10;;
20888;SDS011;10604;51.976;7.594;2023-01-29T13:36:32;36.17;;;26.57;;
20888;SDS011;10604;51.976;7.594;2023-01-29T13:39:01;36.92;;;26.73;;
20888;SDS011;10604;51.976;7.594;2023-01-29T13:41:35;42.97;;;28.27;;
20888;SDS011;10604;51.976;7.594;2023-01-29T13:44:04;37.55;;;26.75;;
20888;SDS011;10604;51.976;7.594;2023-01-29T13:46:32;35.72;;;27.25;;
20888;SDS011;10604;51.976;7.594;2023-01-29T13:48:57;35.43;;;25.67;;
20888;SDS011;10604;51.976;7.594;2023-01-29T13:51:32;38.03;;;27.02;;
20888;SDS011;10604;51.976;7.594;2023-01-29T13:54:07;35.38;;;26.38;;
20888;SDS011;10604;51.976;7.594;2023-01-29T13:59:19;35.57;;;26.30;;
20888;SDS011;10604;51.976;7.594;2023-01-29T14:06:50;34.63;;;25.50;;
20888;SDS011;10604;51.976;7.594;2023-01-29T14:17:13;36.28;;;25.73;;
20888;SDS011;10604;51.976;7.594;2023-01-29T14:19:50;35.97;;;26.45;;
20888;SDS011;10604;51.976;7.594;2023-01-29T14:22:20;36.53;;;25.00;;
20888;SDS011;10604;51.976;7.594;2023-01-29T14:24:49;38.40;;;27.52;;
20888;SDS011;10604;51.976;7.594;2023-01-29T14:27:21;37.85;;;25.77;;
20888;SDS011;10604;51.976;7.594;2023-01-29T14:29:49;36.17;;;25.88;;
20888;SDS011;10604;51.976;7.594;2023-01-29T14:32:21;34.73;;;26.27;;
20888;SDS011;10604;51.976;7.594;2023-01-29T14:35:34;34.25;;;25.60;;
20888;SDS011;10604;51.976;7.594;2023-01-29T14:37:40;37.42;;;25.75;;
20888;SDS011;10604;51.976;7.594;2023-01-29T14:40:14;36.05;;;25.90;;
20888;SDS011;10604;51.976;7.594;2023-01-29T14:45:40;35.13;;;25.20;;
20888;SDS011;10604;51.976;7.594;2023-01-29T14:53:08;34.87;;;25.13;;
20888;SDS011;10604;51.976;7.594;2023-01-29T15:00:50;33.95;;;25.75;;
20888;SDS011;10604;51.976;7.594;2023-01-29T15:03:21;34.38;;;25.42;;
20888;SDS011;10604;51.976;7.594;2023-01-29T15:05:57;37.22;;;24.58;;
20888;SDS011;10604;51.976;7.594;2023-01-29T15:08:28;33.53;;;25.75;;
20888;SDS011;10604;51.976;7.594;2023-01-29T15:11:04;37.90;;;26.23;;
20888;SDS011;10604;51.976;7.594;2023-01-29T15:13:52;38.80;;;25.95;;
20888;SDS011;10604;51.976;7.594;2023-01-29T15:16:28;36.75;;;25.48;;
20888;SDS011;10604;51.976;7.594;2023-01-29T15:19:21;36.55;;;26.35;;
20888;SDS011;10604;51.976;7.594;2023-01-29T15:24:34;36.63;;;26.23;;
20888;SDS011;10604;51.976;7.594;2023-01-29T15:27:00;37.03;;;26.35;;
20888;SDS011;10604;51.976;7.594;2023-01-29T15:29:26;35.60;;;26.00;;
20888;SDS011;10604;51.976;7.594;2023-01-29T15:31:53;39.13;;;27.48;;
20888;SDS011;10604;51.976;7.594;2023-01-29T15:34:19;37.55;;;27.27;;
20888;SDS011;10604;51.976;7.594;2023-01-29T15:36:46;37.90;;;26.03;;
20888;SDS011;10604;51.976;7.594;2023-01-29T15:41:42;38.35;;;26.02;;
20888;SDS011;10604;51.976;7.594;2023-01-29T15:44:12;42.33;;;27.83;;
20888;SDS011;10604;51.976;7.594;2023-01-29T15:46:40;37.15;;;26.33;;
20888;SDS011;10604;51.976;7.594;2023-01-29T15:49:09;39.50;;;29.90;;
20888;SDS011;10604;51.976;7.594;2023-01-29T15:51:41;39.17;;;29.50;;
20888;SDS011;10604;51.976;7.594;2023-01-29T15:54:12;39.15;;;28.48;;
20888;SDS011;10604;51.976;7.594;2023-01-29T15:56:40;37.85;;;28.88;;
20888;SDS011;10604;51.976;7.594;2023-01-29T15:59:15;42.67;;;31.38;;
20888;SDS011;10604;51.976;7.594;2023-01-29T16:01:53;38.55;;;28.95;;
20888;SDS011;10604;51.976;7.594;2023-01-29T16:04:26;45.05;;;32.00;;
20888;SDS011;10604;51.976;7.594;2023-01-29T16:06:55;40.38;;;29.33;;
20888;SDS011;10604;51.976;7.594;2023-01-29T16:09:22;40.47;;;29.77;;
20888;SDS011;10604;51.976;7.594;2023-01-29T16:11:56;41.50;;;29.50;;
20888;SDS011;10604;51.976;7.594;2023-01-29T16:14:23;40.88;;;30.05;;
20888;SDS011;10604;51.976;7.594;2023-01-29T16:16:50;40.03;;;28.42;;
20888;SDS011;10604;51.976;7.594;2023-01-29T16:19:20;41.53;;;29.00;;
20888;SDS011;10604;51.976;7.594;2023-01-29T16:21:57;44.10;;;29.83;;
20888;SDS011;10604;51.976;7.594;2023-01-29T16:24:25;41.97;;;30.13;;
20888;SDS011;10604;51.976;7.594;2023-01-29T16:26:55;41.13;;;29.52;;
20888;SDS011;10604;51.976;7.594;2023-01-29T16:29:23;43.15;;;30.67;;
20888;SDS011;10604;51.976;7.594;2023-01-29T16:31:55;38.65;;;28.80;;
20888;SDS011;10604;51.976;7.594;2023-01-29T16:34:26;42.10;;;29.30;;
20888;SDS011;10604;51.976;7.594;2023-01-29T16:36:55;42.75;;;31.02;;
20888;SDS011;10604;51.976;7.594;2023-01-29T16:39:29;43.43;;;31.90;;
20888;SDS011;10604;51.976;7.594;2023-01-29T16:42:42;41.20;;;30.58;;
20888;SDS011;10604;51.976;7.594;2023-01-29T16:44:45;39.73;;;30.20;;
20888;SDS011;10604;51.976;7.594;2023-01-29T16:47:25;44.47;;;31.30;;
20888;SDS011;10604;51.976;7.594;2023-01-29T16:52:53;46.30;;;32.33;;
20888;SDS011;10604;51.976;7.594;2023-01-29T16:55:21;45.97;;;32.63;;
20888;SDS011;10604;51.976;7.594;2023-01-29T16:57:53;44.72;;;32.53;;
20888;SDS011;10604;51.976;7.594;2023-01-29T17:00:24;43.73;;;31.07;;
20888;SDS011;10604;51.976;7.594;2023-01-29T17:02:53;42.58;;;30.13;;
20888;SDS011;10604;51.976;7.594;2023-01-29T17:05:27;43.57;;;32.43;;
20888;SDS011;10604;51.976;7.594;2023-01-29T17:07:55;44.87;;;32.93;;
20888;SDS011;10604;51.976;7.594;2023-01-29T17:10:22;46.65;;;34.47;;
20888;SDS011;10604;51.976;7.594;2023-01-29T17:15:36;46.92;;;34.03;;
20888;SDS011;10604;51.976;7.594;2023-01-29T17:18:18;48.38;;;35.38;;
20888;SDS011;10604;51.976;7.594;2023-01-29T17:20:45;45.78;;;31.95;;
20888;SDS011;10604;51.976;7.594;2023-01-29T17:23:11;48.37;;;33.47;;
20888;SDS011;10604;51.976;7.594;2023-01-29T17:25:37;50.05;;;34.97;;
20888;SDS011;10604;51.976;7.594;2023-01-29T17:28:03;46.90;;;32.45;;
20888;SDS011;10604;51.976;7.594;2023-01-29T17:30:29;45.57;;;33.10;;